Terminal Aerodrome Forecast
Issued by NWS Wakefield, VA

Home | Current Version | Previous Version | Text Only | Print | Product List | Glossary On
Versions: 1 2 3 4 5 6 7 8 9 10 11 12
000
FTUS41 KAKQ 011100
TAFORF
TAF
KORF 011120Z 0112/0212 12005KT P6SM VCSH SCT040 BKN120
     FM011500 08008KT P6SM SCT040 OVC100
     FM011800 10010KT P6SM BKN050
     FM020000 09010KT P6SM OVC035
     FM020600 15004KT 5SM BR OVC025=

USA.gov is the U.S. government's official web portal to all federal, state and local government web resources and services.